sensor_id;sensor_type;location;lat;lon;timestamp;P1;durP1;ratioP1;P2;durP2;ratioP2
20073;SDS011;10197;54.282;10.078;2023-07-09T00:01:46;5.70;;;3.20;;
20073;SDS011;10197;54.282;10.078;2023-07-09T00:04:13;3.42;;;2.80;;
20073;SDS011;10197;54.282;10.078;2023-07-09T00:06:40;4.32;;;3.40;;
20073;SDS011;10197;54.282;10.078;2023-07-09T00:09:09;3.53;;;3.22;;
20073;SDS011;10197;54.282;10.078;2023-07-09T00:11:39;3.83;;;3.10;;
20073;SDS011;10197;54.282;10.078;2023-07-09T00:14:06;5.38;;;3.85;;
20073;SDS011;10197;54.282;10.078;2023-07-09T00:16:34;3.55;;;3.22;;
20073;SDS011;10197;54.282;10.078;2023-07-09T00:19:03;4.93;;;3.60;;
20073;SDS011;10197;54.282;10.078;2023-07-09T00:21:30;4.13;;;3.58;;
20073;SDS011;10197;54.282;10.078;2023-07-09T00:23:59;7.22;;;3.45;;
20073;SDS011;10197;54.282;10.078;2023-07-09T00:26:30;5.05;;;4.55;;
20073;SDS011;10197;54.282;10.078;2023-07-09T00:28:58;4.95;;;3.92;;
20073;SDS011;10197;54.282;10.078;2023-07-09T00:31:25;3.67;;;3.25;;
20073;SDS011;10197;54.282;10.078;2023-07-09T00:33:53;4.10;;;3.70;;
20073;SDS011;10197;54.282;10.078;2023-07-09T00:36:25;4.75;;;3.05;;
20073;SDS011;10197;54.282;10.078;2023-07-09T00:38:55;4.10;;;3.70;;
20073;SDS011;10197;54.282;10.078;2023-07-09T00:41:24;4.03;;;3.63;;
20073;SDS011;10197;54.282;10.078;2023-07-09T00:43:53;4.57;;;3.42;;
20073;SDS011;10197;54.282;10.078;2023-07-09T00:49:31;4.18;;;3.78;;
20073;SDS011;10197;54.282;10.078;2023-07-09T00:52:01;4.68;;;3.63;;
20073;SDS011;10197;54.282;10.078;2023-07-09T00:54:35;4.78;;;3.78;;
20073;SDS011;10197;54.282;10.078;2023-07-09T00:57:05;3.60;;;3.30;;
20073;SDS011;10197;54.282;10.078;2023-07-09T00:59:33;3.75;;;3.15;;
20073;SDS011;10197;54.282;10.078;2023-07-09T01:02:00;4.25;;;3.53;;
20073;SDS011;10197;54.282;10.078;2023-07-09T01:04:28;3.50;;;3.20;;
20073;SDS011;10197;54.282;10.078;2023-07-09T01:06:56;4.30;;;3.72;;
20073;SDS011;10197;54.282;10.078;2023-07-09T01:09:27;6.35;;;3.70;;
20073;SDS011;10197;54.282;10.078;2023-07-09T01:11:54;5.80;;;3.72;;
20073;SDS011;10197;54.282;10.078;2023-07-09T01:14:29;3.95;;;3.55;;
20073;SDS011;10197;54.282;10.078;2023-07-09T01:16:58;4.55;;;3.30;;
20073;SDS011;10197;54.282;10.078;2023-07-09T01:19:29;3.50;;;3.20;;
20073;SDS011;10197;54.282;10.078;2023-07-09T01:22:10;4.53;;;3.40;;
20073;SDS011;10197;54.282;10.078;2023-07-09T01:24:56;5.38;;;3.50;;
20073;SDS011;10197;54.282;10.078;2023-07-09T01:27:30;3.83;;;3.40;;
20073;SDS011;10197;54.282;10.078;2023-07-09T01:29:59;3.83;;;3.35;;
20073;SDS011;10197;54.282;10.078;2023-07-09T01:32:28;4.35;;;3.10;;
20073;SDS011;10197;54.282;10.078;2023-07-09T01:34:57;3.38;;;3.08;;
20073;SDS011;10197;54.282;10.078;2023-07-09T01:37:32;4.28;;;3.05;;
20073;SDS011;10197;54.282;10.078;2023-07-09T01:40:01;4.05;;;3.40;;
20073;SDS011;10197;54.282;10.078;2023-07-09T01:42:31;4.32;;;3.20;;
20073;SDS011;10197;54.282;10.078;2023-07-09T01:44:59;5.55;;;3.50;;
20073;SDS011;10197;54.282;10.078;2023-07-09T01:47:31;3.90;;;3.35;;
20073;SDS011;10197;54.282;10.078;2023-07-09T01:49:59;4.15;;;3.65;;
20073;SDS011;10197;54.282;10.078;2023-07-09T01:52:29;5.10;;;3.63;;
20073;SDS011;10197;54.282;10.078;2023-07-09T01:55:08;8.23;;;3.40;;
20073;SDS011;10197;54.282;10.078;2023-07-09T01:57:37;4.18;;;3.33;;
20073;SDS011;10197;54.282;10.078;2023-07-09T02:00:07;4.03;;;3.40;;
20073;SDS011;10197;54.282;10.078;2023-07-09T02:02:42;4.85;;;3.38;;
20073;SDS011;10197;54.282;10.078;2023-07-09T02:05:11;4.28;;;3.60;;
20073;SDS011;10197;54.282;10.078;2023-07-09T02:07:42;5.25;;;3.35;;
20073;SDS011;10197;54.282;10.078;2023-07-09T02:10:09;4.07;;;3.40;;
20073;SDS011;10197;54.282;10.078;2023-07-09T02:12:39;4.07;;;3.30;;
20073;SDS011;10197;54.282;10.078;2023-07-09T02:15:07;3.88;;;3.47;;
20073;SDS011;10197;54.282;10.078;2023-07-09T02:17:36;4.10;;;3.35;;
20073;SDS011;10197;54.282;10.078;2023-07-09T02:20:04;3.90;;;3.47;;
20073;SDS011;10197;54.282;10.078;2023-07-09T02:22:32;3.55;;;3.13;;
20073;SDS011;10197;54.282;10.078;2023-07-09T02:25:01;4.40;;;3.47;;
20073;SDS011;10197;54.282;10.078;2023-07-09T02:27:29;3.60;;;3.20;;
20073;SDS011;10197;54.282;10.078;2023-07-09T02:29:55;4.63;;;3.05;;
20073;SDS011;10197;54.282;10.078;2023-07-09T02:32:23;3.95;;;3.42;;
20073;SDS011;10197;54.282;10.078;2023-07-09T02:34:52;4.25;;;3.40;;
20073;SDS011;10197;54.282;10.078;2023-07-09T02:37:19;4.85;;;3.60;;
20073;SDS011;10197;54.282;10.078;2023-07-09T02:39:48;4.47;;;3.40;;
20073;SDS011;10197;54.282;10.078;2023-07-09T02:42:17;3.97;;;3.50;;
20073;SDS011;10197;54.282;10.078;2023-07-09T02:44:46;3.55;;;3.22;;
20073;SDS011;10197;54.282;10.078;2023-07-09T02:47:13;3.00;;;2.70;;
20073;SDS011;10197;54.282;10.078;2023-07-09T02:49:41;4.18;;;3.45;;
20073;SDS011;10197;54.282;10.078;2023-07-09T02:52:08;4.68;;;3.60;;
20073;SDS011;10197;54.282;10.078;2023-07-09T02:54:36;4.25;;;3.67;;
20073;SDS011;10197;54.282;10.078;2023-07-09T02:57:03;3.78;;;3.35;;
20073;SDS011;10197;54.282;10.078;2023-07-09T02:59:31;3.85;;;3.20;;
20073;SDS011;10197;54.282;10.078;2023-07-09T03:01:58;4.35;;;3.40;;
20073;SDS011;10197;54.282;10.078;2023-07-09T03:04:30;4.13;;;3.20;;
20073;SDS011;10197;54.282;10.078;2023-07-09T03:06:58;4.53;;;3.70;;
20073;SDS011;10197;54.282;10.078;2023-07-09T03:09:26;3.60;;;3.30;;
20073;SDS011;10197;54.282;10.078;2023-07-09T03:11:54;3.72;;;3.35;;
20073;SDS011;10197;54.282;10.078;2023-07-09T03:14:21;4.75;;;3.60;;
20073;SDS011;10197;54.282;10.078;2023-07-09T03:16:49;3.90;;;3.50;;
20073;SDS011;10197;54.282;10.078;2023-07-09T03:19:16;5.35;;;3.72;;
20073;SDS011;10197;54.282;10.078;2023-07-09T03:21:44;4.28;;;3.22;;
20073;SDS011;10197;54.282;10.078;2023-07-09T03:24:10;4.35;;;3.40;;
20073;SDS011;10197;54.282;10.078;2023-07-09T03:26:44;6.60;;;4.13;;
20073;SDS011;10197;54.282;10.078;2023-07-09T03:29:12;3.70;;;3.40;;
20073;SDS011;10197;54.282;10.078;2023-07-09T03:31:39;4.07;;;3.45;;
20073;SDS011;10197;54.282;10.078;2023-07-09T03:34:09;3.97;;;3.50;;
20073;SDS011;10197;54.282;10.078;2023-07-09T03:36:37;3.47;;;3.10;;
20073;SDS011;10197;54.282;10.078;2023-07-09T03:39:04;4.05;;;3.35;;
20073;SDS011;10197;54.282;10.078;2023-07-09T03:41:31;3.67;;;3.38;;
20073;SDS011;10197;54.282;10.078;2023-07-09T03:43:58;4.30;;;3.78;;
20073;SDS011;10197;54.282;10.078;2023-07-09T03:46:24;3.80;;;3.50;;
20073;SDS011;10197;54.282;10.078;2023-07-09T03:48:51;3.75;;;3.33;;
20073;SDS011;10197;54.282;10.078;2023-07-09T03:51:19;4.78;;;3.15;;
20073;SDS011;10197;54.282;10.078;2023-07-09T03:53:47;4.22;;;3.08;;
20073;SDS011;10197;54.282;10.078;2023-07-09T03:56:14;7.93;;;3.70;;
20073;SDS011;10197;54.282;10.078;2023-07-09T03:58:41;3.72;;;3.40;;
20073;SDS011;10197;54.282;10.078;2023-07-09T04:01:08;3.55;;;3.25;;
20073;SDS011;10197;54.282;10.078;2023-07-09T04:03:35;4.18;;;3.58;;
20073;SDS011;10197;54.282;10.078;2023-07-09T04:06:02;4.90;;;3.22;;
20073;SDS011;10197;54.282;10.078;2023-07-09T04:08:31;4.32;;;3.58;;
20073;SDS011;10197;54.282;10.078;2023-07-09T04:10:59;5.38;;;3.30;;
20073;SDS011;10197;54.282;10.078;2023-07-09T04:13:30;4.13;;;3.13;;
20073;SDS011;10197;54.282;10.078;2023-07-09T04:15:57;4.28;;;3.58;;
20073;SDS011;10197;54.282;10.078;2023-07-09T04:18:24;3.40;;;3.20;;
20073;SDS011;10197;54.282;10.078;2023-07-09T04:20:51;5.93;;;3.55;;
20073;SDS011;10197;54.282;10.078;2023-07-09T04:23:18;5.07;;;3.13;;
20073;SDS011;10197;54.282;10.078;2023-07-09T04:25:47;5.22;;;3.35;;
20073;SDS011;10197;54.282;10.078;2023-07-09T04:28:14;3.72;;;3.35;;
20073;SDS011;10197;54.282;10.078;2023-07-09T04:30:45;3.50;;;3.20;;
20073;SDS011;10197;54.282;10.078;2023-07-09T04:33:13;4.55;;;2.90;;
20073;SDS011;10197;54.282;10.078;2023-07-09T04:35:43;3.90;;;3.50;;
20073;SDS011;10197;54.282;10.078;2023-07-09T04:38:11;4.03;;;3.10;;
20073;SDS011;10197;54.282;10.078;2023-07-09T04:40:38;3.53;;;3.20;;
20073;SDS011;10197;54.282;10.078;2023-07-09T04:43:06;3.55;;;3.13;;
20073;SDS011;10197;54.282;10.078;2023-07-09T04:45:33;3.90;;;3.55;;
20073;SDS011;10197;54.282;10.078;2023-07-09T04:48:00;4.57;;;3.47;;
20073;SDS011;10197;54.282;10.078;2023-07-09T04:50:27;5.35;;;3.45;;
20073;SDS011;10197;54.282;10.078;2023-07-09T04:52:54;3.60;;;2.90;;
20073;SDS011;10197;54.282;10.078;2023-07-09T04:55:21;3.35;;;3.05;;
20073;SDS011;10197;54.282;10.078;2023-07-09T04:57:48;3.22;;;2.92;;
20073;SDS011;10197;54.282;10.078;2023-07-09T05:00:17;3.72;;;3.08;;
20073;SDS011;10197;54.282;10.078;2023-07-09T05:02:44;3.50;;;3.20;;
20073;SDS011;10197;54.282;10.078;2023-07-09T05:05:11;7.93;;;4.95;;
20073;SDS011;10197;54.282;10.078;2023-07-09T05:07:38;9.82;;;7.38;;
20073;SDS011;10197;54.282;10.078;2023-07-09T05:10:05;10.60;;;8.88;;
20073;SDS011;10197;54.282;10.078;2023-07-09T05:12:32;7.07;;;5.65;;
20073;SDS011;10197;54.282;10.078;2023-07-09T05:14:59;6.43;;;5.22;;
20073;SDS011;10197;54.282;10.078;2023-07-09T05:17:28;5.43;;;4.32;;
20073;SDS011;10197;54.282;10.078;2023-07-09T05:19:54;4.10;;;3.70;;
20073;SDS011;10197;54.282;10.078;2023-07-09T05:22:21;4.80;;;3.78;;
20073;SDS011;10197;54.282;10.078;2023-07-09T05:24:48;3.60;;;3.30;;
20073;SDS011;10197;54.282;10.078;2023-07-09T05:27:16;4.38;;;3.20;;
20073;SDS011;10197;54.282;10.078;2023-07-09T05:29:47;5.30;;;3.00;;
20073;SDS011;10197;54.282;10.078;2023-07-09T05:32:19;3.50;;;3.20;;
20073;SDS011;10197;54.282;10.078;2023-07-09T05:34:48;4.47;;;2.90;;
20073;SDS011;10197;54.282;10.078;2023-07-09T05:37:15;2.88;;;2.60;;
20073;SDS011;10197;54.282;10.078;2023-07-09T05:39:43;4.93;;;3.60;;
20073;SDS011;10197;54.282;10.078;2023-07-09T05:42:10;5.07;;;4.15;;
20073;SDS011;10197;54.282;10.078;2023-07-09T05:44:37;7.78;;;6.38;;
20073;SDS011;10197;54.282;10.078;2023-07-09T05:47:04;7.32;;;5.57;;
20073;SDS011;10197;54.282;10.078;2023-07-09T05:49:30;5.95;;;4.97;;
20073;SDS011;10197;54.282;10.078;2023-07-09T05:51:59;7.30;;;5.55;;
20073;SDS011;10197;54.282;10.078;2023-07-09T05:54:29;6.28;;;5.00;;
20073;SDS011;10197;54.282;10.078;2023-07-09T05:56:55;4.95;;;3.95;;
20073;SDS011;10197;54.282;10.078;2023-07-09T05:59:22;4.15;;;3.55;;
20073;SDS011;10197;54.282;10.078;2023-07-09T06:01:49;5.20;;;3.90;;
20073;SDS011;10197;54.282;10.078;2023-07-09T06:06:47;5.28;;;4.32;;
20073;SDS011;10197;54.282;10.078;2023-07-09T06:09:16;4.43;;;3.95;;
20073;SDS011;10197;54.282;10.078;2023-07-09T06:11:44;6.68;;;3.45;;
20073;SDS011;10197;54.282;10.078;2023-07-09T06:14:12;5.63;;;3.50;;
20073;SDS011;10197;54.282;10.078;2023-07-09T06:16:39;4.03;;;3.13;;
20073;SDS011;10197;54.282;10.078;2023-07-09T06:19:06;3.47;;;3.13;;
20073;SDS011;10197;54.282;10.078;2023-07-09T06:21:33;3.05;;;2.75;;
20073;SDS011;10197;54.282;10.078;2023-07-09T06:24:00;3.20;;;2.90;;
20073;SDS011;10197;54.282;10.078;2023-07-09T06:26:28;4.07;;;3.17;;
20073;SDS011;10197;54.282;10.078;2023-07-09T06:28:55;3.47;;;3.00;;
20073;SDS011;10197;54.282;10.078;2023-07-09T06:31:22;15.35;;;4.40;;
20073;SDS011;10197;54.282;10.078;2023-07-09T06:33:50;6.78;;;3.20;;
20073;SDS011;10197;54.282;10.078;2023-07-09T06:36:17;10.23;;;3.20;;
20073;SDS011;10197;54.282;10.078;2023-07-09T06:38:45;4.30;;;3.30;;
20073;SDS011;10197;54.282;10.078;2023-07-09T06:41:13;4.95;;;3.72;;
20073;SDS011;10197;54.282;10.078;2023-07-09T06:43:42;4.70;;;3.05;;
20073;SDS011;10197;54.282;10.078;2023-07-09T06:46:10;4.75;;;3.33;;
20073;SDS011;10197;54.282;10.078;2023-07-09T06:48:39;3.42;;;3.13;;
20073;SDS011;10197;54.282;10.078;2023-07-09T06:51:08;3.78;;;3.05;;
20073;SDS011;10197;54.282;10.078;2023-07-09T06:53:38;3.72;;;2.65;;
20073;SDS011;10197;54.282;10.078;2023-07-09T06:56:06;3.40;;;3.10;;
20073;SDS011;10197;54.282;10.078;2023-07-09T06:58:33;4.40;;;3.17;;
20073;SDS011;10197;54.282;10.078;2023-07-09T07:01:04;3.88;;;2.63;;
20073;SDS011;10197;54.282;10.078;2023-07-09T07:03:31;4.28;;;3.03;;
20073;SDS011;10197;54.282;10.078;2023-07-09T07:05:59;3.28;;;2.78;;
20073;SDS011;10197;54.282;10.078;2023-07-09T07:08:26;3.15;;;2.70;;
20073;SDS011;10197;54.282;10.078;2023-07-09T07:10:54;4.35;;;3.33;;
20073;SDS011;10197;54.282;10.078;2023-07-09T07:13:28;5.47;;;3.88;;
20073;SDS011;10197;54.282;10.078;2023-07-09T07:15:55;3.65;;;3.28;;
20073;SDS011;10197;54.282;10.078;2023-07-09T07:18:24;5.03;;;4.43;;
20073;SDS011;10197;54.282;10.078;2023-07-09T07:20:50;5.18;;;4.00;;
20073;SDS011;10197;54.282;10.078;2023-07-09T07:23:17;3.25;;;2.95;;
20073;SDS011;10197;54.282;10.078;2023-07-09T07:25:45;2.92;;;2.63;;
20073;SDS011;10197;54.282;10.078;2023-07-09T07:28:12;3.55;;;2.95;;
20073;SDS011;10197;54.282;10.078;2023-07-09T07:30:39;3.80;;;2.80;;
20073;SDS011;10197;54.282;10.078;2023-07-09T07:33:06;3.53;;;3.00;;
20073;SDS011;10197;54.282;10.078;2023-07-09T07:35:34;3.15;;;2.75;;
20073;SDS011;10197;54.282;10.078;2023-07-09T07:38:02;2.70;;;2.50;;
20073;SDS011;10197;54.282;10.078;2023-07-09T07:40:28;2.92;;;2.60;;
20073;SDS011;10197;54.282;10.078;2023-07-09T07:42:55;3.95;;;2.78;;
20073;SDS011;10197;54.282;10.078;2023-07-09T07:45:22;2.83;;;2.53;;
20073;SDS011;10197;54.282;10.078;2023-07-09T07:47:49;2.63;;;2.42;;
20073;SDS011;10197;54.282;10.078;2023-07-09T07:50:17;3.25;;;2.90;;
20073;SDS011;10197;54.282;10.078;2023-07-09T07:52:46;5.00;;;4.50;;
20073;SDS011;10197;54.282;10.078;2023-07-09T07:55:13;8.05;;;4.70;;
20073;SDS011;10197;54.282;10.078;2023-07-09T07:57:40;3.60;;;3.30;;
20073;SDS011;10197;54.282;10.078;2023-07-09T08:00:07;4.18;;;3.00;;
20073;SDS011;10197;54.282;10.078;2023-07-09T08:02:38;3.92;;;2.80;;
20073;SDS011;10197;54.282;10.078;2023-07-09T08:05:05;3.47;;;2.67;;
20073;SDS011;10197;54.282;10.078;2023-07-09T08:07:33;3.78;;;2.80;;
20073;SDS011;10197;54.282;10.078;2023-07-09T08:10:01;3.80;;;2.80;;
20073;SDS011;10197;54.282;10.078;2023-07-09T08:12:28;3.55;;;2.88;;
20073;SDS011;10197;54.282;10.078;2023-07-09T08:14:55;3.05;;;2.75;;
20073;SDS011;10197;54.282;10.078;2023-07-09T08:17:21;3.20;;;2.58;;
20073;SDS011;10197;54.282;10.078;2023-07-09T08:19:49;3.05;;;2.60;;
20073;SDS011;10197;54.282;10.078;2023-07-09T08:22:16;2.55;;;2.35;;
20073;SDS011;10197;54.282;10.078;2023-07-09T08:24:45;4.15;;;2.80;;
20073;SDS011;10197;54.282;10.078;2023-07-09T08:27:14;2.80;;;2.60;;
20073;SDS011;10197;54.282;10.078;2023-07-09T08:29:41;5.72;;;2.60;;
20073;SDS011;10197;54.282;10.078;2023-07-09T08:32:08;3.05;;;2.70;;
20073;SDS011;10197;54.282;10.078;2023-07-09T08:34:37;5.57;;;2.90;;
20073;SDS011;10197;54.282;10.078;2023-07-09T08:37:05;3.30;;;2.95;;
20073;SDS011;10197;54.282;10.078;2023-07-09T08:39:31;4.07;;;2.78;;
20073;SDS011;10197;54.282;10.078;2023-07-09T08:41:59;4.07;;;2.92;;
20073;SDS011;10197;54.282;10.078;2023-07-09T08:44:37;3.47;;;2.72;;
20073;SDS011;10197;54.282;10.078;2023-07-09T08:47:11;3.35;;;3.05;;
20073;SDS011;10197;54.282;10.078;2023-07-09T08:49:44;3.20;;;2.90;;
20073;SDS011;10197;54.282;10.078;2023-07-09T08:52:15;5.28;;;2.78;;
20073;SDS011;10197;54.282;10.078;2023-07-09T08:54:47;3.75;;;3.05;;
20073;SDS011;10197;54.282;10.078;2023-07-09T08:57:17;3.38;;;3.05;;
20073;SDS011;10197;54.282;10.078;2023-07-09T08:59:50;3.22;;;2.80;;
20073;SDS011;10197;54.282;10.078;2023-07-09T09:02:25;4.60;;;2.70;;
20073;SDS011;10197;54.282;10.078;2023-07-09T09:04:57;4.68;;;2.90;;
20073;SDS011;10197;54.282;10.078;2023-07-09T09:07:33;3.92;;;3.50;;
20073;SDS011;10197;54.282;10.078;2023-07-09T09:10:08;4.78;;;3.20;;
20073;SDS011;10197;54.282;10.078;2023-07-09T09:12:40;3.00;;;2.70;;
20073;SDS011;10197;54.282;10.078;2023-07-09T09:15:19;3.05;;;2.67;;
20073;SDS011;10197;54.282;10.078;2023-07-09T09:17:50;3.67;;;3.38;;
20073;SDS011;10197;54.282;10.078;2023-07-09T09:20:19;3.10;;;2.80;;
20073;SDS011;10197;54.282;10.078;2023-07-09T09:22:48;3.30;;;3.00;;
20073;SDS011;10197;54.282;10.078;2023-07-09T09:25:18;3.03;;;2.72;;
20073;SDS011;10197;54.282;10.078;2023-07-09T09:27:50;3.42;;;2.90;;
20073;SDS011;10197;54.282;10.078;2023-07-09T09:30:19;4.03;;;3.22;;
20073;SDS011;10197;54.282;10.078;2023-07-09T09:32:48;3.60;;;3.03;;
20073;SDS011;10197;54.282;10.078;2023-07-09T09:35:19;3.13;;;2.83;;
20073;SDS011;10197;54.282;10.078;2023-07-09T09:37:50;3.10;;;2.78;;
20073;SDS011;10197;54.282;10.078;2023-07-09T09:40:19;3.83;;;3.13;;
20073;SDS011;10197;54.282;10.078;2023-07-09T09:42:48;3.03;;;2.75;;
20073;SDS011;10197;54.282;10.078;2023-07-09T09:45:19;3.85;;;2.83;;
20073;SDS011;10197;54.282;10.078;2023-07-09T09:47:48;3.05;;;2.70;;
20073;SDS011;10197;54.282;10.078;2023-07-09T09:50:17;4.97;;;3.30;;
20073;SDS011;10197;54.282;10.078;2023-07-09T09:52:46;4.15;;;3.35;;
20073;SDS011;10197;54.282;10.078;2023-07-09T09:55:17;3.92;;;3.03;;
20073;SDS011;10197;54.282;10.078;2023-07-09T09:57:49;3.80;;;3.13;;
20073;SDS011;10197;54.282;10.078;2023-07-09T10:00:17;3.38;;;3.08;;
20073;SDS011;10197;54.282;10.078;2023-07-09T10:02:48;3.00;;;2.72;;
20073;SDS011;10197;54.282;10.078;2023-07-09T10:05:15;5.53;;;2.97;;
20073;SDS011;10197;54.282;10.078;2023-07-09T10:07:43;4.55;;;3.50;;
20073;SDS011;10197;54.282;10.078;2023-07-09T10:10:15;3.83;;;3.25;;
20073;SDS011;10197;54.282;10.078;2023-07-09T10:12:47;3.60;;;3.05;;
20073;SDS011;10197;54.282;10.078;2023-07-09T10:15:20;4.63;;;2.72;;
20073;SDS011;10197;54.282;10.078;2023-07-09T10:17:54;3.97;;;3.10;;
20073;SDS011;10197;54.282;10.078;2023-07-09T10:20:25;4.50;;;3.60;;
20073;SDS011;10197;54.282;10.078;2023-07-09T10:22:55;3.67;;;2.78;;
20073;SDS011;10197;54.282;10.078;2023-07-09T10:25:33;4.05;;;3.65;;
20073;SDS011;10197;54.282;10.078;2023-07-09T10:30:56;3.60;;;3.30;;
20073;SDS011;10197;54.282;10.078;2023-07-09T10:33:32;3.30;;;2.90;;
20073;SDS011;10197;54.282;10.078;2023-07-09T10:36:06;5.05;;;3.35;;
20073;SDS011;10197;54.282;10.078;2023-07-09T10:38:45;3.80;;;3.40;;
20073;SDS011;10197;54.282;10.078;2023-07-09T10:41:16;6.47;;;3.10;;
20073;SDS011;10197;54.282;10.078;2023-07-09T10:43:45;3.95;;;3.00;;
20073;SDS011;10197;54.282;10.078;2023-07-09T10:46:17;3.63;;;3.33;;
20073;SDS011;10197;54.282;10.078;2023-07-09T10:48:47;3.78;;;3.28;;
20073;SDS011;10197;54.282;10.078;2023-07-09T10:51:17;4.78;;;3.17;;
20073;SDS011;10197;54.282;10.078;2023-07-09T10:53:48;3.67;;;3.17;;
20073;SDS011;10197;54.282;10.078;2023-07-09T10:56:19;4.47;;;3.15;;
20073;SDS011;10197;54.282;10.078;2023-07-09T10:58:50;4.53;;;3.00;;
20073;SDS011;10197;54.282;10.078;2023-07-09T11:01:25;3.80;;;3.40;;
20073;SDS011;10197;54.282;10.078;2023-07-09T11:03:56;3.38;;;3.08;;
20073;SDS011;10197;54.282;10.078;2023-07-09T11:06:38;5.22;;;4.18;;
20073;SDS011;10197;54.282;10.078;2023-07-09T11:09:11;4.00;;;3.20;;
20073;SDS011;10197;54.282;10.078;2023-07-09T11:11:44;4.22;;;3.60;;
20073;SDS011;10197;54.282;10.078;2023-07-09T11:14:17;3.70;;;3.03;;
20073;SDS011;10197;54.282;10.078;2023-07-09T11:16:53;5.55;;;3.60;;
20073;SDS011;10197;54.282;10.078;2023-07-09T11:19:21;4.22;;;3.50;;
20073;SDS011;10197;54.282;10.078;2023-07-09T11:22:05;3.22;;;3.00;;
20073;SDS011;10197;54.282;10.078;2023-07-09T11:24:44;3.50;;;3.20;;
20073;SDS011;10197;54.282;10.078;2023-07-09T11:27:19;3.95;;;3.65;;
20073;SDS011;10197;54.282;10.078;2023-07-09T11:29:49;6.40;;;3.92;;
20073;SDS011;10197;54.282;10.078;2023-07-09T11:32:25;4.25;;;3.17;;
20073;SDS011;10197;54.282;10.078;2023-07-09T11:34:53;3.63;;;3.33;;
20073;SDS011;10197;54.282;10.078;2023-07-09T11:37:23;3.92;;;3.22;;
20073;SDS011;10197;54.282;10.078;2023-07-09T11:39:51;3.53;;;3.20;;
20073;SDS011;10197;54.282;10.078;2023-07-09T11:42:25;3.55;;;3.25;;
20073;SDS011;10197;54.282;10.078;2023-07-09T11:44:57;3.28;;;2.90;;
20073;SDS011;10197;54.282;10.078;2023-07-09T11:47:30;4.45;;;3.20;;
20073;SDS011;10197;54.282;10.078;2023-07-09T11:50:02;4.90;;;3.20;;
20073;SDS011;10197;54.282;10.078;2023-07-09T11:52:32;4.70;;;4.30;;
20073;SDS011;10197;54.282;10.078;2023-07-09T11:55:01;4.20;;;3.80;;
20073;SDS011;10197;54.282;10.078;2023-07-09T11:57:29;3.65;;;3.35;;
20073;SDS011;10197;54.282;10.078;2023-07-09T11:59:58;4.32;;;3.92;;
20073;SDS011;10197;54.282;10.078;2023-07-09T12:02:26;4.47;;;3.50;;
20073;SDS011;10197;54.282;10.078;2023-07-09T12:04:59;4.15;;;3.75;;
20073;SDS011;10197;54.282;10.078;2023-07-09T12:07:29;3.75;;;3.45;;
20073;SDS011;10197;54.282;10.078;2023-07-09T12:09:56;3.75;;;3.45;;
20073;SDS011;10197;54.282;10.078;2023-07-09T12:12:24;3.67;;;3.38;;
20073;SDS011;10197;54.282;10.078;2023-07-09T12:14:53;4.32;;;3.92;;
20073;SDS011;10197;54.282;10.078;2023-07-09T12:17:22;3.97;;;3.60;;
20073;SDS011;10197;54.282;10.078;2023-07-09T12:19:52;5.45;;;3.53;;
20073;SDS011;10197;54.282;10.078;2023-07-09T12:22:19;4.65;;;3.72;;
20073;SDS011;10197;54.282;10.078;2023-07-09T12:24:48;3.67;;;3.22;;
20073;SDS011;10197;54.282;10.078;2023-07-09T12:27:25;4.13;;;3.78;;
20073;SDS011;10197;54.282;10.078;2023-07-09T12:29:55;3.72;;;3.42;;
20073;SDS011;10197;54.282;10.078;2023-07-09T12:32:22;5.40;;;3.70;;
20073;SDS011;10197;54.282;10.078;2023-07-09T12:34:53;4.03;;;3.63;;
20073;SDS011;10197;54.282;10.078;2023-07-09T12:37:21;5.22;;;4.10;;
20073;SDS011;10197;54.282;10.078;2023-07-09T12:39:51;4.05;;;3.47;;
20073;SDS011;10197;54.282;10.078;2023-07-09T12:42:19;4.40;;;3.92;;
20073;SDS011;10197;54.282;10.078;2023-07-09T12:44:56;3.35;;;3.05;;
20073;SDS011;10197;54.282;10.078;2023-07-09T12:47:23;4.03;;;3.53;;
20073;SDS011;10197;54.282;10.078;2023-07-09T12:49:50;5.38;;;3.90;;
20073;SDS011;10197;54.282;10.078;2023-07-09T12:52:26;4.25;;;3.72;;
20073;SDS011;10197;54.282;10.078;2023-07-09T12:54:55;4.47;;;3.45;;
20073;SDS011;10197;54.282;10.078;2023-07-09T12:57:22;4.00;;;3.70;;
20073;SDS011;10197;54.282;10.078;2023-07-09T12:59:50;5.00;;;4.15;;
20073;SDS011;10197;54.282;10.078;2023-07-09T13:02:18;3.90;;;3.60;;
20073;SDS011;10197;54.282;10.078;2023-07-09T13:04:46;5.13;;;3.70;;
20073;SDS011;10197;54.282;10.078;2023-07-09T13:07:26;3.80;;;3.40;;
20073;SDS011;10197;54.282;10.078;2023-07-09T13:10:03;5.05;;;4.40;;
20073;SDS011;10197;54.282;10.078;2023-07-09T13:12:32;4.20;;;3.35;;
20073;SDS011;10197;54.282;10.078;2023-07-09T13:14:59;6.05;;;3.78;;
20073;SDS011;10197;54.282;10.078;2023-07-09T13:17:29;4.20;;;3.80;;
20073;SDS011;10197;54.282;10.078;2023-07-09T13:19:56;5.03;;;3.92;;
20073;SDS011;10197;54.282;10.078;2023-07-09T13:22:27;4.40;;;3.80;;
20073;SDS011;10197;54.282;10.078;2023-07-09T13:24:54;5.43;;;3.55;;
20073;SDS011;10197;54.282;10.078;2023-07-09T13:27:21;4.22;;;3.80;;
20073;SDS011;10197;54.282;10.078;2023-07-09T13:29:48;3.75;;;3.45;;
20073;SDS011;10197;54.282;10.078;2023-07-09T13:32:15;5.05;;;4.20;;
20073;SDS011;10197;54.282;10.078;2023-07-09T13:34:43;4.28;;;3.30;;
20073;SDS011;10197;54.282;10.078;2023-07-09T13:37:11;5.82;;;3.95;;
20073;SDS011;10197;54.282;10.078;2023-07-09T13:39:40;3.78;;;3.40;;
20073;SDS011;10197;54.282;10.078;2023-07-09T13:42:11;3.95;;;3.55;;
20073;SDS011;10197;54.282;10.078;2023-07-09T13:44:40;3.45;;;3.25;;
20073;SDS011;10197;54.282;10.078;2023-07-09T13:47:09;6.10;;;3.80;;
20073;SDS011;10197;54.282;10.078;2023-07-09T13:49:40;4.45;;;3.35;;
20073;SDS011;10197;54.282;10.078;2023-07-09T13:52:08;4.47;;;3.60;;
20073;SDS011;10197;54.282;10.078;2023-07-09T13:54:42;5.28;;;3.90;;
20073;SDS011;10197;54.282;10.078;2023-07-09T13:57:14;4.43;;;4.00;;
20073;SDS011;10197;54.282;10.078;2023-07-09T13:59:42;4.65;;;3.80;;
20073;SDS011;10197;54.282;10.078;2023-07-09T14:02:15;6.82;;;3.70;;
20073;SDS011;10197;54.282;10.078;2023-07-09T14:04:46;3.80;;;3.50;;
20073;SDS011;10197;54.282;10.078;2023-07-09T14:07:14;4.05;;;3.65;;
20073;SDS011;10197;54.282;10.078;2023-07-09T14:09:50;6.65;;;3.97;;
20073;SDS011;10197;54.282;10.078;2023-07-09T14:12:17;6.20;;;3.67;;
20073;SDS011;10197;54.282;10.078;2023-07-09T14:14:44;4.07;;;3.67;;
20073;SDS011;10197;54.282;10.078;2023-07-09T14:17:11;4.07;;;3.78;;
20073;SDS011;10197;54.282;10.078;2023-07-09T14:19:38;4.20;;;3.80;;
20073;SDS011;10197;54.282;10.078;2023-07-09T14:22:11;4.57;;;3.63;;
20073;SDS011;10197;54.282;10.078;2023-07-09T14:24:48;4.28;;;3.92;;
20073;SDS011;10197;54.282;10.078;2023-07-09T14:27:16;4.78;;;4.13;;
20073;SDS011;10197;54.282;10.078;2023-07-09T14:29:44;4.97;;;4.22;;
20073;SDS011;10197;54.282;10.078;2023-07-09T14:32:21;4.85;;;4.35;;
20073;SDS011;10197;54.282;10.078;2023-07-09T14:34:56;6.10;;;4.70;;
20073;SDS011;10197;54.282;10.078;2023-07-09T14:37:23;4.90;;;4.50;;
20073;SDS011;10197;54.282;10.078;2023-07-09T14:39:52;5.53;;;4.65;;
20073;SDS011;10197;54.282;10.078;2023-07-09T14:42:21;5.30;;;4.60;;
20073;SDS011;10197;54.282;10.078;2023-07-09T14:44:49;5.15;;;4.65;;
20073;SDS011;10197;54.282;10.078;2023-07-09T14:47:17;4.68;;;4.20;;
20073;SDS011;10197;54.282;10.078;2023-07-09T14:49:46;5.20;;;4.15;;
20073;SDS011;10197;54.282;10.078;2023-07-09T14:52:15;5.07;;;4.47;;
20073;SDS011;10197;54.282;10.078;2023-07-09T14:54:44;5.97;;;4.68;;